createdAt,value
2023-01-02T00:02:03.204Z,75.41
2023-01-02T00:06:06.905Z,75.35
2023-01-02T00:10:11.481Z,72.88
2023-01-02T00:14:14.861Z,71.83
2023-01-02T00:18:17.819Z,71.47
2023-01-02T00:22:20.721Z,74.20
2023-01-02T00:26:24.867Z,72.78
2023-01-02T00:30:31.090Z,73.97
2023-01-02T00:34:39.077Z,72.58
2023-01-02T00:38:42.047Z,71.90
2023-01-02T00:42:46.181Z,69.85
2023-01-02T00:46:50.152Z,71.42
2023-01-02T00:50:52.881Z,72.08
2023-01-02T00:54:56.252Z,70.36
2023-01-02T00:59:00.708Z,70.73
2023-01-02T01:03:03.714Z,70.00
2023-01-02T01:07:07.346Z,70.15
2023-01-02T01:11:13.146Z,70.35
2023-01-02T01:15:17.352Z,70.39
2023-01-02T01:19:20.382Z,70.28
2023-01-02T01:23:23.903Z,70.22
2023-01-02T01:27:26.783Z,71.91
2023-01-02T01:31:30.887Z,72.81
2023-01-02T01:35:34.665Z,72.19
2023-01-02T01:39:37.261Z,70.77
2023-01-02T01:43:44.864Z,71.82
2023-01-02T01:47:52.748Z,72.58
2023-01-02T01:51:57.166Z,72.03
2023-01-02T01:56:03.256Z,70.36
2023-01-02T02:00:08.406Z,73.07
2023-01-02T02:04:12.967Z,72.08
2023-01-02T02:08:18.922Z,71.26
2023-01-02T02:12:27.692Z,73.45
2023-01-02T02:16:37.927Z,76.47
2023-01-02T02:20:44.066Z,79.48
2023-01-02T02:25:01.958Z,78.06
2023-01-02T02:29:27.105Z,79.56
2023-01-02T02:33:39.278Z,81.33
2023-01-02T02:37:48.100Z,83.28
2023-01-02T02:41:58.453Z,77.22
2023-01-02T02:46:06.239Z,78.64
2023-01-02T02:50:13.321Z,81.69
2023-01-02T02:54:20.037Z,82.60
2023-01-02T02:58:23.854Z,81.35
2023-01-02T03:02:27.034Z,79.44
2023-01-02T03:06:45.774Z,79.57
2023-01-02T03:10:53.204Z,79.40
2023-01-02T03:14:59.754Z,75.36
2023-01-02T03:19:06.291Z,73.47
2023-01-02T03:23:14.351Z,69.27
2023-01-02T03:27:22.036Z,70.55
2023-01-02T03:31:26.906Z,70.69
2023-01-02T03:35:34.483Z,69.75
2023-01-02T03:39:42.678Z,69.11
2023-01-02T03:43:52.972Z,66.61
2023-01-02T03:48:03.314Z,66.53
2023-01-02T03:52:06.372Z,67.00
2023-01-02T03:56:17.758Z,67.58
2023-01-02T04:00:21.711Z,66.43
2023-01-02T04:04:32.209Z,66.33
2023-01-02T04:08:38.772Z,67.02
2023-01-02T04:12:46.997Z,63.63
2023-01-02T04:16:51.025Z,64.53
2023-01-02T04:20:56.028Z,64.86
2023-01-02T04:25:03.315Z,63.96
2023-01-02T04:29:08.049Z,64.48
2023-01-02T04:33:11.845Z,64.60
2023-01-02T04:37:30.932Z,64.24
2023-01-02T04:41:35.255Z,64.98
2023-01-02T04:45:39.430Z,63.31
2023-01-02T04:49:42.134Z,65.08
2023-01-02T04:53:45.188Z,64.06
2023-01-02T04:57:48.192Z,64.54
2023-01-02T05:01:52.334Z,64.12
2023-01-02T05:06:01.501Z,64.17
2023-01-02T05:10:04.771Z,64.46
2023-01-02T05:14:08.087Z,64.50
2023-01-02T05:18:12.597Z,61.94
2023-01-02T05:22:32.912Z,63.57
2023-01-02T05:26:35.874Z,64.05
2023-01-02T05:30:39.198Z,64.40
2023-01-02T05:34:43.287Z,65.57
2023-01-02T05:38:46.189Z,65.79
2023-01-02T05:42:49.295Z,67.21
2023-01-02T05:46:52.471Z,67.55
2023-01-02T05:50:56.658Z,67.62
2023-01-02T05:54:59.765Z,68.31
2023-01-02T05:59:02.484Z,69.07
2023-01-02T06:03:05.382Z,69.64
2023-01-02T06:07:09.540Z,70.02
2023-01-02T06:11:12.652Z,71.26
2023-01-02T06:15:15.323Z,71.83
2023-01-02T06:19:18.045Z,72.28
2023-01-02T06:23:22.987Z,73.37
2023-01-02T06:27:25.669Z,71.29
2023-01-02T06:31:29.861Z,71.10
2023-01-02T06:35:33.073Z,71.83
2023-01-02T06:39:37.175Z,73.37
2023-01-02T06:43:44.117Z,72.97
2023-01-02T06:47:46.916Z,72.19
2023-01-02T06:51:50.063Z,74.86
2023-01-02T06:55:55.916Z,74.13
2023-01-02T06:59:58.714Z,73.83
2023-01-02T07:04:01.628Z,74.97
2023-01-02T07:08:04.620Z,75.66
2023-01-02T07:12:08.735Z,77.23
2023-01-02T07:16:13.273Z,74.93
2023-01-02T07:20:16.191Z,79.11
2023-01-02T07:24:18.860Z,76.57
2023-01-02T07:28:23.362Z,73.55
2023-01-02T07:32:27.711Z,71.32
2023-01-02T07:36:30.677Z,71.74
2023-01-02T07:40:33.611Z,71.96
2023-01-02T07:44:37.838Z,70.79
2023-01-02T07:48:40.680Z,71.07
2023-01-02T07:52:43.574Z,70.45
2023-01-02T07:56:46.779Z,68.80
2023-01-02T08:00:51.063Z,69.88
2023-01-02T08:04:53.742Z,69.35
2023-01-02T08:08:56.572Z,68.40
2023-01-02T08:12:59.489Z,68.53
2023-01-02T08:17:03.588Z,69.35
2023-01-02T08:21:06.882Z,70.57
2023-01-02T08:25:11.334Z,70.88
2023-01-02T08:29:14.298Z,71.19
2023-01-02T08:33:18.418Z,72.54
2023-01-02T08:37:21.763Z,75.72
2023-01-02T08:41:34.630Z,76.19
2023-01-02T08:45:37.379Z,80.25
2023-01-02T08:49:41.449Z,80.83
2023-01-02T08:53:44.398Z,82.33
2023-01-02T08:57:47.033Z,84.17
2023-01-02T09:01:49.808Z,85.34
2023-01-02T09:05:55.948Z,86.40
2023-01-02T09:09:58.659Z,86.53
2023-01-02T09:14:02.331Z,86.67
2023-01-02T09:18:05.078Z,88.02
2023-01-02T09:22:09.488Z,88.18
2023-01-02T09:26:13.247Z,89.53
2023-01-02T09:30:15.831Z,88.60
2023-01-02T09:34:18.603Z,89.55
2023-01-02T09:38:22.961Z,89.04
2023-01-02T09:42:25.825Z,89.95
2023-01-02T09:46:33.519Z,90.20
2023-01-02T09:50:36.927Z,91.31
2023-01-02T09:54:41.205Z,90.96
2023-01-02T09:58:49.162Z,91.90
2023-01-02T10:03:08.204Z,90.07
2023-01-02T10:07:14.927Z,90.75
2023-01-02T10:11:27.157Z,91.30
2023-01-02T10:15:30.751Z,91.16
2023-01-02T10:19:42.018Z,91.67
2023-01-02T10:23:48.575Z,91.35
2023-01-02T10:27:57.559Z,91.60
2023-01-02T10:32:01.866Z,91.37
2023-01-02T10:36:24.330Z,91.07
2023-01-02T10:40:27.022Z,90.90
2023-01-02T10:44:39.981Z,90.75
2023-01-02T10:48:48.371Z,91.27
2023-01-02T10:52:59.760Z,91.13
2023-01-02T10:57:02.606Z,92.76
2023-01-02T11:01:08.791Z,93.33
2023-01-02T11:05:20.733Z,93.09
2023-01-02T11:09:32.280Z,92.37
2023-01-02T11:13:51.933Z,92.14
2023-01-02T11:17:59.815Z,92.25
2023-01-02T11:22:02.610Z,92.31
2023-01-02T11:26:06.858Z,92.28
2023-01-02T11:30:21.901Z,92.49
2023-01-02T11:34:27.601Z,91.93
2023-01-02T11:38:44.215Z,92.23
2023-01-02T11:43:07.658Z,91.95
2023-01-02T11:47:11.975Z,92.13
2023-01-02T11:51:18.039Z,92.72
2023-01-02T11:55:30.795Z,91.70
2023-01-02T11:59:37.641Z,92.63
2023-01-02T12:03:40.886Z,92.96
2023-01-02T12:07:46.772Z,91.94
2023-01-02T12:12:02.235Z,92.29
2023-01-02T12:16:17.194Z,91.67
2023-01-02T12:20:28.896Z,92.68
2023-01-02T12:24:59.766Z,91.86
2023-01-02T12:29:46.838Z,92.39
2023-01-02T12:33:47.464Z,92.36
2023-01-02T12:37:55.135Z,92.17
2023-01-02T12:42:04.856Z,92.20
2023-01-02T12:46:15.808Z,93.00
2023-01-02T12:50:27.125Z,92.51
2023-01-02T12:55:00.208Z,92.54
2023-01-02T12:59:26.285Z,93.53
2023-01-02T13:03:43.211Z,93.09
2023-01-02T13:07:48.824Z,93.66
2023-01-02T13:12:00.577Z,93.94
2023-01-02T13:16:22.617Z,93.30
2023-01-02T13:20:34.076Z,92.88
2023-01-02T13:24:37.166Z,92.61
2023-01-02T13:28:43.079Z,93.63
2023-01-02T13:32:49.122Z,93.43
2023-01-02T13:36:53.036Z,93.04
2023-01-02T13:40:58.370Z,93.68
2023-01-02T13:45:01.901Z,92.57
2023-01-02T13:49:07.352Z,92.43
2023-01-02T13:53:28.309Z,92.61
2023-01-02T13:57:33.966Z,92.37
2023-01-02T14:02:14.891Z,92.79
2023-01-02T14:06:33.819Z,91.57
2023-01-02T14:10:41.872Z,92.46
2023-01-02T14:14:50.739Z,92.24
2023-01-02T14:19:14.966Z,93.21
2023-01-02T14:23:28.441Z,94.31
2023-01-02T14:27:33.922Z,92.96
2023-01-02T14:31:43.654Z,93.42
2023-01-02T14:35:51.977Z,93.92
2023-01-02T14:39:57.704Z,93.87
2023-01-02T14:44:01.069Z,93.67
2023-01-02T14:48:08.854Z,93.35
2023-01-02T14:52:15.110Z,94.64
2023-01-02T14:56:40.385Z,94.07
2023-01-02T15:00:49.038Z,93.49
2023-01-02T15:04:54.451Z,94.30
2023-01-02T15:09:02.103Z,93.31
2023-01-02T15:13:07.496Z,93.66
2023-01-02T15:17:12.279Z,93.18
2023-01-02T15:21:15.941Z,94.19
2023-01-02T15:25:32.250Z,93.90
2023-01-02T15:29:36.197Z,93.94
2023-01-02T15:33:39.472Z,93.68
2023-01-02T15:37:43.700Z,94.72
2023-01-02T15:41:49.311Z,94.16
2023-01-02T15:45:54.303Z,93.79
2023-01-02T15:49:57.643Z,94.16
2023-01-02T15:54:03.472Z,92.90
2023-01-02T15:58:25.516Z,92.91
2023-01-02T16:02:37.703Z,93.42
2023-01-02T16:06:42.759Z,94.02
2023-01-02T16:10:50.732Z,93.12
2023-01-02T16:14:56.152Z,93.61
2023-01-02T16:19:01.648Z,93.76
2023-01-02T16:23:06.069Z,93.17
2023-01-02T16:27:13.878Z,93.46
2023-01-02T16:31:18.242Z,93.47
2023-01-02T16:35:25.441Z,93.41
2023-01-02T16:39:42.527Z,92.95
2023-01-02T16:43:47.833Z,93.35
2023-01-02T16:47:51.254Z,94.01
2023-01-02T16:51:55.919Z,93.53
2023-01-02T16:55:59.598Z,93.06
2023-01-02T17:00:03.331Z,92.92
2023-01-02T17:04:06.240Z,94.05
2023-01-02T17:08:10.474Z,94.23
2023-01-02T17:12:13.997Z,93.45
2023-01-02T17:16:17.217Z,94.01
2023-01-02T17:20:21.081Z,93.97
2023-01-02T17:24:25.316Z,93.32
2023-01-02T17:28:30.777Z,93.59
2023-01-02T17:32:33.987Z,93.83
2023-01-02T17:36:37.184Z,93.04
2023-01-02T17:40:41.761Z,93.54
2023-01-02T17:44:45.461Z,93.25
2023-01-02T17:48:48.470Z,93.20
2023-01-02T17:52:51.394Z,93.22
2023-01-02T17:56:56.595Z,93.90
2023-01-02T18:01:01.146Z,94.03
2023-01-02T18:05:04.252Z,93.78
2023-01-02T18:09:07.784Z,93.88
2023-01-02T18:13:18.962Z,94.10
2023-01-02T18:17:30.042Z,93.77
2023-01-02T18:21:34.198Z,93.92
2023-01-02T18:25:37.420Z,93.26
2023-01-02T18:29:45.108Z,93.51
2023-01-02T18:33:48.359Z,93.66
2023-01-02T18:37:52.735Z,94.29
2023-01-02T18:41:59.652Z,93.75
2023-01-02T18:46:12.845Z,92.90
2023-01-02T18:50:33.617Z,93.90
2023-01-02T18:54:36.425Z,93.93
2023-01-02T18:58:43.366Z,93.19
2023-01-02T19:02:55.808Z,93.45
2023-01-02T19:07:02.898Z,93.75
2023-01-02T19:11:28.880Z,93.47
2023-01-02T19:15:40.658Z,92.90
2023-01-02T19:19:45.811Z,94.01
2023-01-02T19:23:53.742Z,94.05
2023-01-02T19:27:57.959Z,93.56
2023-01-02T19:32:05.046Z,93.21
2023-01-02T19:36:15.556Z,94.21
2023-01-02T19:40:21.149Z,94.11
2023-01-02T19:44:24.678Z,93.46
2023-01-02T19:48:28.159Z,93.72
2023-01-02T19:52:33.001Z,93.64
2023-01-02T19:56:36.901Z,93.95
2023-01-02T20:00:39.875Z,93.74
2023-01-02T20:04:43.243Z,94.32
2023-01-02T20:08:47.406Z,94.39
2023-01-02T20:12:51.280Z,93.87
2023-01-02T20:16:54.108Z,94.15
2023-01-02T20:20:57.580Z,94.14
2023-01-02T20:25:02.032Z,95.09
2023-01-02T20:29:05.709Z,94.04
2023-01-02T20:33:11.435Z,94.45
2023-01-02T20:37:21.247Z,94.66
2023-01-02T20:41:25.451Z,94.03
2023-01-02T20:45:28.617Z,94.61
2023-01-02T20:49:31.986Z,94.97
2023-01-02T20:53:35.829Z,94.69
2023-01-02T20:57:44.060Z,94.68
2023-01-02T21:01:48.228Z,94.20
2023-01-02T21:05:53.929Z,94.70
2023-01-02T21:09:59.145Z,94.88
2023-01-02T21:14:04.483Z,94.54
2023-01-02T21:18:07.652Z,94.11
2023-01-02T21:22:10.793Z,94.73
2023-01-02T21:26:15.360Z,94.14
2023-01-02T21:30:20.552Z,94.71
2023-01-02T21:34:33.314Z,94.41
2023-01-02T21:38:39.950Z,95.06
2023-01-02T21:42:46.715Z,95.81
2023-01-02T21:46:53.999Z,96.04
2023-01-02T21:51:00.906Z,95.75
2023-01-02T21:55:07.423Z,95.21
2023-01-02T21:59:10.960Z,95.36
2023-01-02T22:03:15.832Z,95.99
2023-01-02T22:07:31.672Z,95.69
2023-01-02T22:11:52.756Z,95.41
2023-01-02T22:15:59.415Z,95.52
2023-01-02T22:20:04.481Z,96.17
2023-01-02T22:24:08.419Z,96.25
2023-01-02T22:28:11.494Z,96.53
2023-01-02T22:32:16.122Z,96.32
2023-01-02T22:36:20.450Z,96.71
2023-01-02T22:40:24.295Z,96.83
2023-01-02T22:44:28.080Z,97.09
2023-01-02T22:48:38.425Z,96.94
2023-01-02T22:52:43.638Z,96.97
2023-01-02T22:56:47.506Z,96.37
2023-01-02T23:00:58.848Z,96.44
2023-01-02T23:05:05.132Z,96.20
2023-01-02T23:09:12.010Z,95.31
2023-01-02T23:13:15.172Z,95.69
2023-01-02T23:17:35.725Z,95.36
2023-01-02T23:21:40.668Z,94.97
2023-01-02T23:25:55.954Z,95.02
2023-01-02T23:29:59.325Z,94.87
2023-01-02T23:34:04.329Z,95.09
2023-01-02T23:38:08.216Z,95.38
2023-01-02T23:42:15.887Z,94.60
2023-01-02T23:46:26.071Z,95.52
2023-01-02T23:50:29.446Z,95.04
2023-01-02T23:54:33.305Z,94.73
2023-01-02T23:58:39.788Z,94.45
